sensor_id;sensor_type;location;lat;lon;timestamp;pressure;altitude;pressure_sealevel;temperature;humidity
31911;BME280;18457;52.432;16.914;2022-12-18T00:00:57;102147.81;;;-2.68;88.33
31911;BME280;18457;52.432;16.914;2022-12-18T00:03:47;102150.77;;;-2.81;89.04
31911;BME280;18457;52.432;16.914;2022-12-18T00:06:20;102150.70;;;-2.85;89.38
31911;BME280;18457;52.432;16.914;2022-12-18T00:08:52;102149.07;;;-2.74;89.40
31911;BME280;18457;52.432;16.914;2022-12-18T00:11:26;102153.94;;;-2.69;88.53
31911;BME280;18457;52.432;16.914;2022-12-18T00:13:59;102156.09;;;-2.65;88.39
31911;BME280;18457;52.432;16.914;2022-12-18T00:16:29;102145.30;;;-2.62;87.98
31911;BME280;18457;52.432;16.914;2022-12-18T00:19:04;102156.04;;;-2.91;88.32
31911;BME280;18457;52.432;16.914;2022-12-18T00:21:39;102159.31;;;-3.13;89.84
31911;BME280;18457;52.432;16.914;2022-12-18T00:24:12;102166.96;;;-3.09;89.45
31911;BME280;18457;52.432;16.914;2022-12-18T00:26:44;102174.56;;;-3.50;90.92
31911;BME280;18457;52.432;16.914;2022-12-18T00:29:16;102176.39;;;-3.72;92.14
31911;BME280;18457;52.432;16.914;2022-12-18T00:31:48;102164.06;;;-3.48;92.00
31911;BME280;18457;52.432;16.914;2022-12-18T00:34:20;102167.86;;;-3.58;91.48
31911;BME280;18457;52.432;16.914;2022-12-18T00:36:52;102168.15;;;-3.51;91.23
31911;BME280;18457;52.432;16.914;2022-12-18T00:39:25;102170.67;;;-3.39;90.88
31911;BME280;18457;52.432;16.914;2022-12-18T00:41:56;102173.09;;;-3.39;90.77
31911;BME280;18457;52.432;16.914;2022-12-18T00:44:55;102174.23;;;-3.21;90.04
31911;BME280;18457;52.432;16.914;2022-12-18T00:47:27;102179.33;;;-3.27;90.12
31911;BME280;18457;52.432;16.914;2022-12-18T00:49:59;102183.58;;;-3.38;90.72
31911;BME280;18457;52.432;16.914;2022-12-18T00:52:31;102190.75;;;-3.14;90.24
31911;BME280;18457;52.432;16.914;2022-12-18T00:55:03;102191.91;;;-3.29;89.92
31911;BME280;18457;52.432;16.914;2022-12-18T00:57:36;102194.36;;;-3.38;90.63
31911;BME280;18457;52.432;16.914;2022-12-18T01:00:12;102195.02;;;-3.59;91.35
31911;BME280;18457;52.432;16.914;2022-12-18T01:02:44;102198.05;;;-3.30;91.43
31911;BME280;18457;52.432;16.914;2022-12-18T01:05:17;102204.05;;;-3.10;90.14
31911;BME280;18457;52.432;16.914;2022-12-18T01:07:50;102213.85;;;-3.02;88.93
31911;BME280;18457;52.432;16.914;2022-12-18T01:10:21;102222.56;;;-2.99;88.29
31911;BME280;18457;52.432;16.914;2022-12-18T01:12:53;102226.48;;;-3.04;87.91
31911;BME280;18457;52.432;16.914;2022-12-18T01:15:24;102227.25;;;-3.06;88.18
31911;BME280;18457;52.432;16.914;2022-12-18T01:17:56;102227.00;;;-2.98;87.60
31911;BME280;18457;52.432;16.914;2022-12-18T01:20:30;102227.63;;;-2.97;86.98
31911;BME280;18457;52.432;16.914;2022-12-18T01:23:02;102229.91;;;-3.03;86.58
31911;BME280;18457;52.432;16.914;2022-12-18T01:25:33;102234.44;;;-3.44;87.99
31911;BME280;18457;52.432;16.914;2022-12-18T01:28:07;102234.35;;;-3.31;88.10
31911;BME280;18457;52.432;16.914;2022-12-18T01:30:38;102237.97;;;-3.47;88.53
31911;BME280;18457;52.432;16.914;2022-12-18T01:33:10;102236.10;;;-3.74;89.62
31911;BME280;18457;52.432;16.914;2022-12-18T01:35:43;102231.88;;;-3.51;89.32
31911;BME280;18457;52.432;16.914;2022-12-18T01:38:15;102239.30;;;-3.49;88.28
31911;BME280;18457;52.432;16.914;2022-12-18T01:40:48;102236.95;;;-3.63;88.86
31911;BME280;18457;52.432;16.914;2022-12-18T01:43:20;102242.14;;;-3.82;89.57
31911;BME280;18457;52.432;16.914;2022-12-18T01:45:52;102241.73;;;-3.83;89.88
31911;BME280;18457;52.432;16.914;2022-12-18T01:48:24;102243.38;;;-3.68;89.21
31911;BME280;18457;52.432;16.914;2022-12-18T01:50:55;102248.03;;;-3.92;89.55
31911;BME280;18457;52.432;16.914;2022-12-18T01:53:30;102248.67;;;-3.76;89.44
31911;BME280;18457;52.432;16.914;2022-12-18T01:56:02;102248.86;;;-3.93;89.60
31911;BME280;18457;52.432;16.914;2022-12-18T01:58:39;102249.85;;;-3.94;90.35
31911;BME280;18457;52.432;16.914;2022-12-18T02:01:13;102245.31;;;-3.68;88.79
31911;BME280;18457;52.432;16.914;2022-12-18T02:03:45;102245.88;;;-3.56;87.99
31911;BME280;18457;52.432;16.914;2022-12-18T02:06:21;102248.90;;;-3.53;87.51
31911;BME280;18457;52.432;16.914;2022-12-18T02:09:05;102258.68;;;-3.60;87.55
31911;BME280;18457;52.432;16.914;2022-12-18T02:11:46;102265.48;;;-3.68;87.92
31911;BME280;18457;52.432;16.914;2022-12-18T02:14:26;102264.48;;;-3.94;88.66
31911;BME280;18457;52.432;16.914;2022-12-18T02:17:13;102265.10;;;-4.01;88.58
31911;BME280;18457;52.432;16.914;2022-12-18T02:20:00;102271.95;;;-3.96;88.87
31911;BME280;18457;52.432;16.914;2022-12-18T02:22:44;102277.36;;;-3.86;88.17
31911;BME280;18457;52.432;16.914;2022-12-18T02:25:33;102277.45;;;-4.09;88.48
31911;BME280;18457;52.432;16.914;2022-12-18T02:28:13;102272.73;;;-3.92;88.22
31911;BME280;18457;52.432;16.914;2022-12-18T02:30:50;102276.64;;;-3.94;87.98
31911;BME280;18457;52.432;16.914;2022-12-18T02:33:25;102269.23;;;-3.78;87.50
31911;BME280;18457;52.432;16.914;2022-12-18T02:36:00;102276.16;;;-4.02;87.83
31911;BME280;18457;52.432;16.914;2022-12-18T02:38:35;102280.63;;;-3.90;87.37
31911;BME280;18457;52.432;16.914;2022-12-18T02:41:14;102281.66;;;-3.99;87.25
31911;BME280;18457;52.432;16.914;2022-12-18T02:43:55;102280.47;;;-4.09;86.79
31911;BME280;18457;52.432;16.914;2022-12-18T02:46:32;102285.32;;;-4.10;87.40
31911;BME280;18457;52.432;16.914;2022-12-18T02:49:16;102279.20;;;-3.99;86.70
31911;BME280;18457;52.432;16.914;2022-12-18T02:51:55;102281.32;;;-4.17;86.20
31911;BME280;18457;52.432;16.914;2022-12-18T02:54:41;102284.93;;;-4.08;86.38
31911;BME280;18457;52.432;16.914;2022-12-18T02:57:20;102293.42;;;-4.02;85.57
31911;BME280;18457;52.432;16.914;2022-12-18T03:00:00;102287.40;;;-4.10;85.96
31911;BME280;18457;52.432;16.914;2022-12-18T03:02:37;102287.34;;;-3.98;85.42
31911;BME280;18457;52.432;16.914;2022-12-18T03:05:14;102287.64;;;-3.99;85.37
31911;BME280;18457;52.432;16.914;2022-12-18T03:07:50;102289.83;;;-4.22;86.29
31911;BME280;18457;52.432;16.914;2022-12-18T03:10:29;102287.16;;;-4.33;86.16
31911;BME280;18457;52.432;16.914;2022-12-18T03:13:07;102289.00;;;-4.43;86.66
31911;BME280;18457;52.432;16.914;2022-12-18T03:15:44;102294.14;;;-4.63;86.83
31911;BME280;18457;52.432;16.914;2022-12-18T03:18:20;102292.21;;;-4.66;87.44
31911;BME280;18457;52.432;16.914;2022-12-18T03:20:57;102299.38;;;-4.40;87.44
31911;BME280;18457;52.432;16.914;2022-12-18T03:23:32;102304.04;;;-4.47;86.77
31911;BME280;18457;52.432;16.914;2022-12-18T03:26:09;102303.33;;;-4.47;87.97
31911;BME280;18457;52.432;16.914;2022-12-18T03:28:47;102303.28;;;-4.66;88.33
31911;BME280;18457;52.432;16.914;2022-12-18T03:31:23;102307.05;;;-4.39;88.49
31911;BME280;18457;52.432;16.914;2022-12-18T03:33:57;102303.94;;;-4.30;87.63
31911;BME280;18457;52.432;16.914;2022-12-18T03:36:36;102306.89;;;-4.55;88.02
31911;BME280;18457;52.432;16.914;2022-12-18T03:39:08;102309.84;;;-4.84;89.66
31911;BME280;18457;52.432;16.914;2022-12-18T03:41:45;102316.39;;;-4.91;90.03
31911;BME280;18457;52.432;16.914;2022-12-18T03:44:39;102323.25;;;-4.99;91.06
31911;BME280;18457;52.432;16.914;2022-12-18T03:47:16;102317.05;;;-4.66;90.77
31911;BME280;18457;52.432;16.914;2022-12-18T03:49:57;102316.75;;;-4.55;89.89
31911;BME280;18457;52.432;16.914;2022-12-18T03:52:38;102319.65;;;-4.35;89.22
31911;BME280;18457;52.432;16.914;2022-12-18T03:55:13;102319.17;;;-4.21;88.21
31911;BME280;18457;52.432;16.914;2022-12-18T03:57:47;102319.56;;;-4.21;87.98
31911;BME280;18457;52.432;16.914;2022-12-18T04:00:20;102322.33;;;-4.19;87.96
31911;BME280;18457;52.432;16.914;2022-12-18T04:02:59;102317.02;;;-4.17;88.39
31911;BME280;18457;52.432;16.914;2022-12-18T04:05:37;102319.52;;;-4.03;87.74
31911;BME280;18457;52.432;16.914;2022-12-18T04:08:10;102319.58;;;-4.02;86.88
31911;BME280;18457;52.432;16.914;2022-12-18T04:10:45;102323.20;;;-4.11;86.84
31911;BME280;18457;52.432;16.914;2022-12-18T04:13:24;102329.91;;;-4.08;86.97
31911;BME280;18457;52.432;16.914;2022-12-18T04:15:59;102328.17;;;-4.16;86.67
31911;BME280;18457;52.432;16.914;2022-12-18T04:18:31;102327.66;;;-4.29;86.87
31911;BME280;18457;52.432;16.914;2022-12-18T04:21:02;102331.91;;;-4.21;86.99
31911;BME280;18457;52.432;16.914;2022-12-18T04:23:35;102336.20;;;-4.17;86.54
31911;BME280;18457;52.432;16.914;2022-12-18T04:26:07;102338.38;;;-4.16;86.58
31911;BME280;18457;52.432;16.914;2022-12-18T04:28:49;102340.92;;;-4.18;86.35
31911;BME280;18457;52.432;16.914;2022-12-18T04:31:20;102343.65;;;-4.17;86.89
31911;BME280;18457;52.432;16.914;2022-12-18T04:33:52;102342.73;;;-4.12;86.82
31911;BME280;18457;52.432;16.914;2022-12-18T04:36:23;102343.95;;;-4.28;86.94
31911;BME280;18457;52.432;16.914;2022-12-18T04:38:56;102351.59;;;-4.24;87.42
31911;BME280;18457;52.432;16.914;2022-12-18T04:41:28;102354.22;;;-4.14;87.20
31911;BME280;18457;52.432;16.914;2022-12-18T04:44:00;102354.52;;;-4.10;86.81
31911;BME280;18457;52.432;16.914;2022-12-18T04:46:32;102353.02;;;-4.05;86.49
31911;BME280;18457;52.432;16.914;2022-12-18T04:49:04;102357.05;;;-4.22;87.27
31911;BME280;18457;52.432;16.914;2022-12-18T04:51:35;102360.77;;;-4.19;87.76
31911;BME280;18457;52.432;16.914;2022-12-18T04:54:07;102362.40;;;-4.08;87.13
31911;BME280;18457;52.432;16.914;2022-12-18T04:56:39;102362.05;;;-4.08;87.13
31911;BME280;18457;52.432;16.914;2022-12-18T04:59:10;102369.62;;;-4.08;87.53
31911;BME280;18457;52.432;16.914;2022-12-18T05:01:42;102365.52;;;-4.01;87.10
31911;BME280;18457;52.432;16.914;2022-12-18T05:04:14;102369.85;;;-4.05;86.92
31911;BME280;18457;52.432;16.914;2022-12-18T05:06:47;102376.52;;;-4.16;86.73
31911;BME280;18457;52.432;16.914;2022-12-18T05:09:18;102381.23;;;-4.06;86.52
31911;BME280;18457;52.432;16.914;2022-12-18T05:11:50;102385.33;;;-4.06;86.27
31911;BME280;18457;52.432;16.914;2022-12-18T05:14:22;102388.71;;;-4.42;87.53
31911;BME280;18457;52.432;16.914;2022-12-18T05:16:54;102388.83;;;-4.27;88.31
31911;BME280;18457;52.432;16.914;2022-12-18T05:19:31;102387.73;;;-4.15;87.51
31911;BME280;18457;52.432;16.914;2022-12-18T05:22:02;102389.59;;;-4.08;87.27
31911;BME280;18457;52.432;16.914;2022-12-18T05:24:37;102393.45;;;-4.03;87.29
31911;BME280;18457;52.432;16.914;2022-12-18T05:27:09;102395.31;;;-4.01;86.92
31911;BME280;18457;52.432;16.914;2022-12-18T05:29:42;102394.10;;;-3.98;86.64
31911;BME280;18457;52.432;16.914;2022-12-18T05:32:13;102399.79;;;-4.03;86.69
31911;BME280;18457;52.432;16.914;2022-12-18T05:34:45;102401.53;;;-4.01;86.71
31911;BME280;18457;52.432;16.914;2022-12-18T05:37:17;102405.38;;;-4.01;86.86
31911;BME280;18457;52.432;16.914;2022-12-18T05:39:49;102415.48;;;-4.34;87.25
31911;BME280;18457;52.432;16.914;2022-12-18T05:42:20;102416.11;;;-4.38;88.41
31911;BME280;18457;52.432;16.914;2022-12-18T05:44:52;102417.92;;;-4.22;88.20
31911;BME280;18457;52.432;16.914;2022-12-18T05:47:25;102418.20;;;-4.31;88.35
31911;BME280;18457;52.432;16.914;2022-12-18T05:49:58;102423.62;;;-4.24;88.57
31911;BME280;18457;52.432;16.914;2022-12-18T05:52:29;102422.45;;;-4.33;88.59
31911;BME280;18457;52.432;16.914;2022-12-18T05:55:01;102425.57;;;-4.31;89.07
31911;BME280;18457;52.432;16.914;2022-12-18T05:57:33;102430.47;;;-4.24;88.66
31911;BME280;18457;52.432;16.914;2022-12-18T06:00:06;102431.60;;;-4.38;89.03
31911;BME280;18457;52.432;16.914;2022-12-18T06:02:41;102438.54;;;-4.40;89.89
31911;BME280;18457;52.432;16.914;2022-12-18T06:05:13;102444.40;;;-4.27;89.71
31911;BME280;18457;52.432;16.914;2022-12-18T06:07:45;102449.82;;;-4.17;89.08
31911;BME280;18457;52.432;16.914;2022-12-18T06:10:17;102449.95;;;-4.13;88.71
31911;BME280;18457;52.432;16.914;2022-12-18T06:12:49;102452.54;;;-4.26;89.13
31911;BME280;18457;52.432;16.914;2022-12-18T06:15:21;102458.92;;;-4.13;88.88
31911;BME280;18457;52.432;16.914;2022-12-18T06:17:53;102463.46;;;-4.09;88.56
31911;BME280;18457;52.432;16.914;2022-12-18T06:20:25;102472.20;;;-4.17;88.77
31911;BME280;18457;52.432;16.914;2022-12-18T06:23:03;102474.23;;;-4.19;88.73
31911;BME280;18457;52.432;16.914;2022-12-18T06:25:36;102476.20;;;-4.13;88.58
31911;BME280;18457;52.432;16.914;2022-12-18T06:28:08;102480.59;;;-4.14;88.43
31911;BME280;18457;52.432;16.914;2022-12-18T06:30:40;102478.16;;;-4.08;87.85
31911;BME280;18457;52.432;16.914;2022-12-18T06:33:14;102478.99;;;-4.19;88.01
31911;BME280;18457;52.432;16.914;2022-12-18T06:35:46;102484.60;;;-4.17;88.29
31911;BME280;18457;52.432;16.914;2022-12-18T06:38:18;102486.58;;;-4.52;89.03
31911;BME280;18457;52.432;16.914;2022-12-18T06:40:50;102487.07;;;-4.42;89.91
31911;BME280;18457;52.432;16.914;2022-12-18T06:43:21;102483.00;;;-4.30;89.58
31911;BME280;18457;52.432;16.914;2022-12-18T06:45:59;102481.64;;;-4.24;88.84
31911;BME280;18457;52.432;16.914;2022-12-18T06:48:33;102482.30;;;-4.35;89.46
31911;BME280;18457;52.432;16.914;2022-12-18T06:51:03;102486.37;;;-4.35;88.64
31911;BME280;18457;52.432;16.914;2022-12-18T06:53:35;102487.74;;;-4.45;89.18
31911;BME280;18457;52.432;16.914;2022-12-18T06:56:07;102488.73;;;-4.46;89.14
31911;BME280;18457;52.432;16.914;2022-12-18T06:58:41;102491.28;;;-4.43;89.35
31911;BME280;18457;52.432;16.914;2022-12-18T07:01:13;102494.42;;;-4.41;88.89
31911;BME280;18457;52.432;16.914;2022-12-18T07:03:45;102502.74;;;-4.30;88.95
31911;BME280;18457;52.432;16.914;2022-12-18T07:06:19;102505.50;;;-4.26;88.05
31911;BME280;18457;52.432;16.914;2022-12-18T07:08:52;102510.39;;;-4.62;88.93
31911;BME280;18457;52.432;16.914;2022-12-18T07:11:25;102518.35;;;-4.39;88.86
31911;BME280;18457;52.432;16.914;2022-12-18T07:13:57;102522.33;;;-4.40;88.61
31911;BME280;18457;52.432;16.914;2022-12-18T07:16:29;102525.34;;;-4.22;87.96
31911;BME280;18457;52.432;16.914;2022-12-18T07:19:01;102527.08;;;-4.30;87.91
31911;BME280;18457;52.432;16.914;2022-12-18T07:21:32;102526.87;;;-4.20;87.46
31911;BME280;18457;52.432;16.914;2022-12-18T07:24:05;102526.69;;;-4.23;87.39
31911;BME280;18457;52.432;16.914;2022-12-18T07:26:37;102524.08;;;-4.23;87.43
31911;BME280;18457;52.432;16.914;2022-12-18T07:29:09;102530.24;;;-4.15;87.39
31911;BME280;18457;52.432;16.914;2022-12-18T07:31:41;102525.93;;;-4.11;87.16
31911;BME280;18457;52.432;16.914;2022-12-18T07:34:14;102529.86;;;-4.08;86.86
31911;BME280;18457;52.432;16.914;2022-12-18T07:36:46;102537.27;;;-4.06;86.74
31911;BME280;18457;52.432;16.914;2022-12-18T07:39:18;102542.11;;;-4.12;86.45
31911;BME280;18457;52.432;16.914;2022-12-18T07:41:49;102545.99;;;-4.52;88.17
31911;BME280;18457;52.432;16.914;2022-12-18T07:44:38;102557.58;;;-4.35;88.48
31911;BME280;18457;52.432;16.914;2022-12-18T07:47:11;102571.89;;;-4.22;87.67
31911;BME280;18457;52.432;16.914;2022-12-18T07:49:43;102568.15;;;-4.16;87.17
31911;BME280;18457;52.432;16.914;2022-12-18T07:52:15;102578.59;;;-4.10;87.34
31911;BME280;18457;52.432;16.914;2022-12-18T07:54:53;102577.10;;;-4.16;87.26
31911;BME280;18457;52.432;16.914;2022-12-18T07:57:24;102579.84;;;-4.05;86.81
31911;BME280;18457;52.432;16.914;2022-12-18T08:00:17;102580.79;;;-4.06;86.74
31911;BME280;18457;52.432;16.914;2022-12-18T08:02:50;102588.09;;;-4.20;86.59
31911;BME280;18457;52.432;16.914;2022-12-18T08:05:23;102590.63;;;-4.34;87.59
31911;BME280;18457;52.432;16.914;2022-12-18T08:07:55;102595.92;;;-4.14;86.89
31911;BME280;18457;52.432;16.914;2022-12-18T08:10:26;102599.52;;;-4.19;87.00
31911;BME280;18457;52.432;16.914;2022-12-18T08:12:58;102603.04;;;-4.13;87.16
31911;BME280;18457;52.432;16.914;2022-12-18T08:15:34;102604.79;;;-4.09;87.08
31911;BME280;18457;52.432;16.914;2022-12-18T08:18:06;102606.71;;;-4.02;86.95
31911;BME280;18457;52.432;16.914;2022-12-18T08:20:44;102611.80;;;-3.95;86.51
31911;BME280;18457;52.432;16.914;2022-12-18T08:23:16;102610.38;;;-4.00;86.54
31911;BME280;18457;52.432;16.914;2022-12-18T08:25:48;102614.52;;;-3.99;86.74
31911;BME280;18457;52.432;16.914;2022-12-18T08:28:20;102607.11;;;-4.01;86.67
31911;BME280;18457;52.432;16.914;2022-12-18T08:30:54;102604.42;;;-4.02;87.27
31911;BME280;18457;52.432;16.914;2022-12-18T08:33:26;102603.38;;;-3.89;87.06
31911;BME280;18457;52.432;16.914;2022-12-18T08:35:59;102605.83;;;-3.87;86.77
31911;BME280;18457;52.432;16.914;2022-12-18T08:38:31;102605.49;;;-3.91;86.86
31911;BME280;18457;52.432;16.914;2022-12-18T08:41:06;102605.52;;;-3.84;87.03
31911;BME280;18457;52.432;16.914;2022-12-18T08:43:38;102603.05;;;-3.78;86.83
31911;BME280;18457;52.432;16.914;2022-12-18T08:46:34;102603.69;;;-3.80;86.41
31911;BME280;18457;52.432;16.914;2022-12-18T08:49:07;102595.05;;;-3.79;86.30
31911;BME280;18457;52.432;16.914;2022-12-18T08:51:40;102592.27;;;-4.04;87.72
31911;BME280;18457;52.432;16.914;2022-12-18T08:54:13;102585.02;;;-3.87;87.75
31911;BME280;18457;52.432;16.914;2022-12-18T08:56:45;102585.58;;;-3.96;88.25
31911;BME280;18457;52.432;16.914;2022-12-18T08:59:17;102581.06;;;-3.82;87.97
31911;BME280;18457;52.432;16.914;2022-12-18T09:01:50;102576.57;;;-3.83;88.14
31911;BME280;18457;52.432;16.914;2022-12-18T09:04:24;102569.36;;;-3.81;88.25
31911;BME280;18457;52.432;16.914;2022-12-18T09:06:56;102563.61;;;-3.80;88.13
31911;BME280;18457;52.432;16.914;2022-12-18T09:09:28;102555.14;;;-3.69;87.89
31911;BME280;18457;52.432;16.914;2022-12-18T09:12:00;102559.81;;;-3.63;87.22
31911;BME280;18457;52.432;16.914;2022-12-18T09:14:31;102554.27;;;-0.73;93.60
31911;BME280;18457;52.432;16.914;2022-12-18T09:17:03;102557.16;;;5.56;100.00
31911;BME280;18457;52.432;16.914;2022-12-18T09:19:36;102561.78;;;6.32;96.37
31911;BME280;18457;52.432;16.914;2022-12-18T09:22:08;102566.80;;;2.96;77.63
31911;BME280;18457;52.432;16.914;2022-12-18T09:24:40;102567.30;;;-0.11;81.34
31911;BME280;18457;52.432;16.914;2022-12-18T09:27:11;102578.73;;;-1.16;83.74
31911;BME280;18457;52.432;16.914;2022-12-18T09:29:43;102578.20;;;-1.73;86.84
31911;BME280;18457;52.432;16.914;2022-12-18T09:32:15;102581.87;;;-1.83;86.41
31911;BME280;18457;52.432;16.914;2022-12-18T09:34:52;102587.55;;;-2.26;85.70
31911;BME280;18457;52.432;16.914;2022-12-18T09:37:24;102595.92;;;-2.36;85.06
31911;BME280;18457;52.432;16.914;2022-12-18T09:39:56;102597.19;;;-2.38;83.99
31911;BME280;18457;52.432;16.914;2022-12-18T09:42:28;102589.11;;;-2.48;83.67
31911;BME280;18457;52.432;16.914;2022-12-18T09:45:00;102584.78;;;-2.52;84.03
31911;BME280;18457;52.432;16.914;2022-12-18T09:47:36;102582.16;;;-2.55;84.49
31911;BME280;18457;52.432;16.914;2022-12-18T09:50:19;102583.25;;;-2.71;85.68
31911;BME280;18457;52.432;16.914;2022-12-18T09:52:56;102583.77;;;-2.68;85.61
31911;BME280;18457;52.432;16.914;2022-12-18T09:55:31;102579.98;;;-2.80;85.99
31911;BME280;18457;52.432;16.914;2022-12-18T09:58:12;102573.60;;;-2.89;87.08
31911;BME280;18457;52.432;16.914;2022-12-18T10:00:46;102580.59;;;-2.74;86.41
31911;BME280;18457;52.432;16.914;2022-12-18T10:03:18;102579.52;;;-2.74;86.62
31911;BME280;18457;52.432;16.914;2022-12-18T10:05:58;102575.13;;;-2.65;86.24
31911;BME280;18457;52.432;16.914;2022-12-18T10:08:42;102576.34;;;-2.60;85.92
31911;BME280;18457;52.432;16.914;2022-12-18T10:11:29;102581.64;;;-2.66;85.96
31911;BME280;18457;52.432;16.914;2022-12-18T10:14:08;102576.88;;;-2.76;86.37
31911;BME280;18457;52.432;16.914;2022-12-18T10:16:47;102571.06;;;-2.82;87.01
31911;BME280;18457;52.432;16.914;2022-12-18T10:19:41;102575.38;;;-2.66;86.52
31911;BME280;18457;52.432;16.914;2022-12-18T10:22:38;102585.02;;;-2.57;86.25
31911;BME280;18457;52.432;16.914;2022-12-18T10:25:21;102586.59;;;-2.63;86.60
31911;BME280;18457;52.432;16.914;2022-12-18T10:27:57;102586.04;;;-2.60;87.01
31911;BME280;18457;52.432;16.914;2022-12-18T10:30:29;102587.02;;;-2.53;86.82
31911;BME280;18457;52.432;16.914;2022-12-18T10:33:03;102585.35;;;-2.49;86.81
31911;BME280;18457;52.432;16.914;2022-12-18T10:35:36;102585.52;;;-2.60;87.77
31911;BME280;18457;52.432;16.914;2022-12-18T10:38:07;102588.02;;;-2.54;87.51
31911;BME280;18457;52.432;16.914;2022-12-18T10:40:54;102590.61;;;-2.49;87.12
31911;BME280;18457;52.432;16.914;2022-12-18T10:43:28;102595.42;;;-2.41;86.72
31911;BME280;18457;52.432;16.914;2022-12-18T10:46:17;102593.73;;;-2.39;86.47
31911;BME280;18457;52.432;16.914;2022-12-18T10:48:54;102590.30;;;-2.41;87.00
31911;BME280;18457;52.432;16.914;2022-12-18T10:51:29;102592.35;;;-2.36;87.04
31911;BME280;18457;52.432;16.914;2022-12-18T10:54:05;102589.81;;;-2.32;86.91
31911;BME280;18457;52.432;16.914;2022-12-18T10:56:39;102589.93;;;-2.32;87.09
31911;BME280;18457;52.432;16.914;2022-12-18T10:59:14;102581.10;;;-2.29;87.39
31911;BME280;18457;52.432;16.914;2022-12-18T11:01:51;102584.52;;;-2.18;86.99
31911;BME280;18457;52.432;16.914;2022-12-18T11:04:27;102586.02;;;-2.22;87.27
31911;BME280;18457;52.432;16.914;2022-12-18T11:07:01;102583.95;;;-2.18;87.35
31911;BME280;18457;52.432;16.914;2022-12-18T11:09:34;102578.58;;;-2.11;87.48
31911;BME280;18457;52.432;16.914;2022-12-18T11:12:16;102570.21;;;-2.09;87.39
31911;BME280;18457;52.432;16.914;2022-12-18T11:14:50;102565.43;;;-2.08;87.26
31911;BME280;18457;52.432;16.914;2022-12-18T11:17:27;102567.04;;;-2.14;87.68
31911;BME280;18457;52.432;16.914;2022-12-18T11:20:03;102567.23;;;-2.05;87.03
31911;BME280;18457;52.432;16.914;2022-12-18T11:22:36;102569.90;;;-2.05;87.08
31911;BME280;18457;52.432;16.914;2022-12-18T11:25:20;102576.36;;;-2.06;87.31
31911;BME280;18457;52.432;16.914;2022-12-18T11:28:27;102572.92;;;-2.02;86.91
31911;BME280;18457;52.432;16.914;2022-12-18T11:31:20;102570.10;;;-2.10;86.86
31911;BME280;18457;52.432;16.914;2022-12-18T11:33:57;102562.39;;;-2.20;87.45
31911;BME280;18457;52.432;16.914;2022-12-18T11:36:51;102557.80;;;-2.15;87.14
31911;BME280;18457;52.432;16.914;2022-12-18T11:39:36;102558.64;;;-2.10;86.43
31911;BME280;18457;52.432;16.914;2022-12-18T11:42:14;102560.67;;;-2.02;85.45
31911;BME280;18457;52.432;16.914;2022-12-18T11:44:52;102562.54;;;-2.10;85.56
31911;BME280;18457;52.432;16.914;2022-12-18T11:47:31;102565.70;;;-2.07;85.75
31911;BME280;18457;52.432;16.914;2022-12-18T11:50:12;102564.25;;;-2.05;86.05
31911;BME280;18457;52.432;16.914;2022-12-18T11:52:46;102565.36;;;-2.07;85.95
31911;BME280;18457;52.432;16.914;2022-12-18T11:55:31;102567.68;;;-2.21;86.69
31911;BME280;18457;52.432;16.914;2022-12-18T11:58:15;102575.23;;;-2.10;86.37
31911;BME280;18457;52.432;16.914;2022-12-18T12:00:59;102581.48;;;-2.10;86.15
31911;BME280;18457;52.432;16.914;2022-12-18T12:03:54;102586.78;;;-2.07;85.36
31911;BME280;18457;52.432;16.914;2022-12-18T12:06:36;102584.66;;;-2.21;86.28
31911;BME280;18457;52.432;16.914;2022-12-18T12:09:20;102577.71;;;-2.10;85.99
31911;BME280;18457;52.432;16.914;2022-12-18T12:12:06;102588.02;;;-2.01;86.15
31911;BME280;18457;52.432;16.914;2022-12-18T12:14:49;102589.58;;;-1.93;86.19
31911;BME280;18457;52.432;16.914;2022-12-18T12:17:31;102591.57;;;-1.90;86.44
31911;BME280;18457;52.432;16.914;2022-12-18T12:20:11;102587.64;;;-1.87;86.87
31911;BME280;18457;52.432;16.914;2022-12-18T12:22:52;102589.88;;;-1.80;86.94
31911;BME280;18457;52.432;16.914;2022-12-18T12:25:35;102592.80;;;-1.87;87.09
31911;BME280;18457;52.432;16.914;2022-12-18T12:28:24;102599.67;;;-1.82;87.12
31911;BME280;18457;52.432;16.914;2022-12-18T12:31:05;102605.77;;;-1.81;86.58
31911;BME280;18457;52.432;16.914;2022-12-18T12:33:46;102600.47;;;-1.86;86.71
31911;BME280;18457;52.432;16.914;2022-12-18T12:36:29;102599.05;;;-1.80;86.77
31911;BME280;18457;52.432;16.914;2022-12-18T12:39:08;102596.92;;;-1.74;86.37
31911;BME280;18457;52.432;16.914;2022-12-18T12:41:46;102592.67;;;-1.71;86.51
31911;BME280;18457;52.432;16.914;2022-12-18T12:44:39;102591.02;;;-1.81;86.52
31911;BME280;18457;52.432;16.914;2022-12-18T12:47:16;102594.71;;;-1.82;86.14
31911;BME280;18457;52.432;16.914;2022-12-18T12:49:50;102594.36;;;-1.82;85.77
31911;BME280;18457;52.432;16.914;2022-12-18T12:52:29;102594.79;;;-1.86;85.80
31911;BME280;18457;52.432;16.914;2022-12-18T12:55:04;102595.22;;;-1.86;85.65
31911;BME280;18457;52.432;16.914;2022-12-18T12:57:48;102596.20;;;-1.81;85.35
31911;BME280;18457;52.432;16.914;2022-12-18T13:00:24;102592.84;;;-1.60;88.96
31911;BME280;18457;52.432;16.914;2022-12-18T13:03:01;102588.17;;;-1.84;87.30
31911;BME280;18457;52.432;16.914;2022-12-18T13:05:43;102582.95;;;-1.83;86.60
31911;BME280;18457;52.432;16.914;2022-12-18T13:08:26;102575.77;;;-1.82;85.42
31911;BME280;18457;52.432;16.914;2022-12-18T13:11:03;102574.97;;;-1.78;84.82
31911;BME280;18457;52.432;16.914;2022-12-18T13:14:22;102571.61;;;-1.86;85.10
31911;BME280;18457;52.432;16.914;2022-12-18T13:17:28;102578.53;;;-1.91;85.13
31911;BME280;18457;52.432;16.914;2022-12-18T13:20:15;102587.62;;;-1.96;84.84
31911;BME280;18457;52.432;16.914;2022-12-18T13:22:49;102585.69;;;-1.96;84.90
31911;BME280;18457;52.432;16.914;2022-12-18T13:25:33;102577.19;;;-1.96;84.93